createdAt,value
2022-08-28T00:01:11.924Z,101194.00
2022-08-28T00:03:14.693Z,101194.94
2022-08-28T00:05:20.057Z,101189.56
2022-08-28T00:07:23.019Z,101197.50
2022-08-28T00:09:34.111Z,101191.06
2022-08-28T00:11:52.626Z,101189.50
2022-08-28T00:14:07.101Z,101190.22
2022-08-28T00:16:09.125Z,101195.06
2022-08-28T00:18:12.826Z,101193.31
2022-08-28T00:20:16.329Z,101200.53
2022-08-28T00:22:18.985Z,101187.78
2022-08-28T00:24:28.587Z,101190.59
2022-08-28T00:26:48.812Z,101195.97
2022-08-28T00:28:56.542Z,101186.91
2022-08-28T00:31:29.207Z,101196.16
2022-08-28T00:33:33.442Z,101187.94
2022-08-28T00:35:44.518Z,101191.56
2022-08-28T00:37:57.210Z,101177.94
2022-08-28T00:40:06.179Z,101188.88
2022-08-28T00:42:08.514Z,101197.91
2022-08-28T00:44:12.820Z,101196.97
2022-08-28T00:46:18.303Z,101195.03
2022-08-28T00:48:22.344Z,101194.94
2022-08-28T00:50:29.146Z,101204.97
2022-08-28T00:52:31.384Z,101198.72
2022-08-28T00:54:38.966Z,101200.53
2022-08-28T00:56:41.693Z,101204.31
2022-08-28T00:58:51.895Z,101199.63
2022-08-28T01:00:57.902Z,101205.19
2022-08-28T01:03:07.024Z,101192.56
2022-08-28T01:05:10.894Z,101206.09
2022-08-28T01:07:13.324Z,101202.56
2022-08-28T01:09:15.422Z,101205.19
2022-08-28T01:11:23.417Z,101206.13
2022-08-28T01:13:25.643Z,101198.84
2022-08-28T01:15:36.189Z,101205.28
2022-08-28T01:17:40.131Z,101207.97
2022-08-28T01:19:46.019Z,101206.25
2022-08-28T01:21:51.042Z,101204.44
2022-08-28T01:23:55.306Z,101203.56
2022-08-28T01:26:00.033Z,101207.94
2022-08-28T01:28:05.935Z,101210.72
2022-08-28T01:30:08.958Z,101200.72
2022-08-28T01:32:10.878Z,101198.38
2022-08-28T01:34:13.095Z,101200.03
2022-08-28T01:36:15.401Z,101194.56
2022-08-28T01:38:20.102Z,101188.50
2022-08-28T01:40:24.721Z,101192.94
2022-08-28T01:42:26.886Z,101192.03
2022-08-28T01:44:29.470Z,101187.53
2022-08-28T01:46:33.033Z,101188.38
2022-08-28T01:48:36.078Z,101180.28
2022-08-28T01:50:38.147Z,101188.50
2022-08-28T01:52:40.470Z,101176.00
2022-08-28T01:54:44.604Z,101180.41
2022-08-28T01:56:48.194Z,101176.69
2022-08-28T01:58:50.663Z,101168.63
2022-08-28T02:00:52.695Z,101175.84
2022-08-28T02:02:55.620Z,101169.59
2022-08-28T02:05:00.368Z,101177.72
2022-08-28T02:07:02.895Z,101181.22
2022-08-28T02:09:05.131Z,101188.44
2022-08-28T02:11:07.780Z,101188.38
2022-08-28T02:13:11.320Z,101187.44
2022-08-28T02:15:13.658Z,101187.53
2022-08-28T02:17:15.809Z,101187.53
2022-08-28T02:19:17.929Z,101185.66
2022-08-28T02:21:24.537Z,101180.31
2022-08-28T02:23:29.152Z,101174.00
2022-08-28T02:25:31.648Z,101186.66
2022-08-28T02:27:35.873Z,101189.28
2022-08-28T02:29:39.614Z,101197.31
2022-08-28T02:31:43.935Z,101185.81
2022-08-28T02:33:51.892Z,101193.84
2022-08-28T02:35:53.955Z,101188.44
2022-08-28T02:37:55.918Z,101188.53
2022-08-28T02:40:01.968Z,101195.66
2022-08-28T02:42:04.231Z,101190.31
2022-08-28T02:44:12.653Z,101184.97
2022-08-28T02:46:21.863Z,101192.13
2022-08-28T02:48:35.840Z,101192.16
2022-08-28T02:50:37.926Z,101189.47
2022-08-28T02:52:40.531Z,101186.78
2022-08-28T02:54:42.882Z,101188.56
2022-08-28T02:56:45.206Z,101184.06
2022-08-28T02:58:47.254Z,101182.25
2022-08-28T03:00:49.426Z,101184.13
2022-08-28T03:02:52.924Z,101186.81
2022-08-28T03:04:55.074Z,101184.97
2022-08-28T03:06:57.095Z,101184.13
2022-08-28T03:08:59.116Z,101180.56
2022-08-28T03:11:03.747Z,101187.75
2022-08-28T03:13:23.049Z,101179.63
2022-08-28T03:15:30.246Z,101177.81
2022-08-28T03:17:47.838Z,101176.09
2022-08-28T03:19:51.734Z,101177.88
2022-08-28T03:22:08.441Z,101174.28
2022-08-28T03:24:10.716Z,101172.47
2022-08-28T03:26:44.326Z,101179.63
2022-08-28T03:28:47.413Z,101180.56
2022-08-28T03:30:49.684Z,101176.13
2022-08-28T03:32:54.322Z,101183.19
2022-08-28T03:34:59.435Z,101178.75
2022-08-28T03:37:04.504Z,101178.81
2022-08-28T03:39:09.477Z,101178.81
2022-08-28T03:41:14.788Z,101177.91
2022-08-28T03:43:18.504Z,101179.69
2022-08-28T03:45:20.919Z,101177.00
2022-08-28T03:47:29.985Z,101173.44
2022-08-28T03:49:32.605Z,101179.72
2022-08-28T03:51:36.795Z,101184.19
2022-08-28T03:53:39.358Z,101179.66
2022-08-28T03:55:41.359Z,101186.78
2022-08-28T03:57:43.257Z,101176.13
2022-08-28T03:59:45.752Z,101178.81
2022-08-28T04:01:48.066Z,101177.88
2022-08-28T04:03:50.525Z,101180.59
2022-08-28T04:05:52.572Z,101183.22
2022-08-28T04:07:56.162Z,101188.53
2022-08-28T04:10:01.394Z,101192.16
2022-08-28T04:12:06.009Z,101191.25
2022-08-28T04:14:10.354Z,101180.59
2022-08-28T04:16:14.018Z,101183.28
2022-08-28T04:18:15.979Z,101185.91
2022-08-28T04:20:18.064Z,101183.28
2022-08-28T04:22:21.309Z,101186.84
2022-08-28T04:24:29.195Z,101185.88
2022-08-28T04:26:31.456Z,101188.53
2022-08-28T04:28:33.805Z,101193.91
2022-08-28T04:30:37.010Z,101194.78
2022-08-28T04:32:41.691Z,101189.50
2022-08-28T04:34:47.929Z,101194.84
2022-08-28T04:36:50.587Z,101192.13
2022-08-28T04:38:55.958Z,101194.81
2022-08-28T04:41:05.877Z,101191.25
2022-08-28T04:43:14.941Z,101204.63
2022-08-28T04:45:17.282Z,101202.84
2022-08-28T04:47:19.496Z,101206.44
2022-08-28T04:49:21.493Z,101199.25
2022-08-28T04:51:28.296Z,101217.97
2022-08-28T04:53:30.272Z,101210.81
2022-08-28T04:55:48.474Z,101209.13
2022-08-28T04:57:55.639Z,101209.94
2022-08-28T04:59:57.686Z,101212.63
2022-08-28T05:01:59.675Z,101217.06
2022-08-28T05:04:02.424Z,101218.03
2022-08-28T05:06:04.707Z,101218.88
2022-08-28T05:08:07.773Z,101231.41
2022-08-28T05:10:10.050Z,101221.50
2022-08-28T05:12:12.244Z,101224.22
2022-08-28T05:14:16.402Z,101230.56
2022-08-28T05:16:18.856Z,101222.47
2022-08-28T05:18:21.769Z,101231.47
2022-08-28T05:20:23.681Z,101232.31
2022-08-28T05:22:25.613Z,101233.22
2022-08-28T05:24:27.712Z,101230.59
2022-08-28T05:26:33.061Z,101226.03
2022-08-28T05:28:35.152Z,101235.91
2022-08-28T05:30:44.781Z,101242.09
2022-08-28T05:32:47.961Z,101238.63
2022-08-28T05:34:49.973Z,101236.00
2022-08-28T05:36:52.177Z,101242.19
2022-08-28T05:38:55.506Z,101243.13
2022-08-28T05:40:57.624Z,101238.66
2022-08-28T05:43:00.457Z,101244.06
2022-08-28T05:45:04.231Z,101248.56
2022-08-28T05:47:07.677Z,101253.06
2022-08-28T05:49:10.408Z,101245.88
2022-08-28T05:51:13.869Z,101249.44
2022-08-28T05:53:16.697Z,101256.63
2022-08-28T05:55:18.910Z,101253.03
2022-08-28T05:57:20.901Z,101251.28
2022-08-28T05:59:25.602Z,101249.47
2022-08-28T06:01:28.491Z,101249.47
2022-08-28T06:03:32.142Z,101246.78
2022-08-28T06:05:34.290Z,101248.59
2022-08-28T06:07:36.391Z,101253.06
2022-08-28T06:09:38.369Z,101250.38
2022-08-28T06:11:44.660Z,101247.66
2022-08-28T06:13:47.997Z,101248.56
2022-08-28T06:15:50.027Z,101254.84
2022-08-28T06:17:52.070Z,101243.19
2022-08-28T06:19:55.503Z,101244.94
2022-08-28T06:21:58.064Z,101242.28
2022-08-28T06:24:00.036Z,101258.41
2022-08-28T06:26:02.034Z,101259.25
2022-08-28T06:28:04.099Z,101261.09
2022-08-28T06:30:06.733Z,101254.81
2022-08-28T06:32:08.845Z,101258.41
2022-08-28T06:34:10.864Z,101252.97
2022-08-28T06:36:14.265Z,101249.47
2022-08-28T06:38:16.666Z,101260.16
2022-08-28T06:40:18.690Z,101261.97
2022-08-28T06:42:20.747Z,101266.47
2022-08-28T06:44:39.236Z,101261.97
2022-08-28T06:46:41.355Z,101252.03
2022-08-28T06:48:43.416Z,101257.50
2022-08-28T06:50:49.051Z,101265.38
2022-08-28T06:52:52.335Z,101262.66
2022-08-28T06:54:55.880Z,101251.13
2022-08-28T06:56:58.122Z,101252.94
2022-08-28T06:59:00.287Z,101253.91
2022-08-28T07:01:03.570Z,101263.75
2022-08-28T07:03:05.636Z,101259.09
2022-08-28T07:05:07.751Z,101259.19
2022-08-28T07:07:09.684Z,101262.63
2022-08-28T07:09:24.030Z,101263.53
2022-08-28T07:11:30.241Z,101260.75
2022-08-28T07:13:33.851Z,101257.88
2022-08-28T07:15:42.178Z,101268.91
2022-08-28T07:17:46.272Z,101264.31
2022-08-28T07:19:48.486Z,101259.13
2022-08-28T07:21:52.216Z,101266.22
2022-08-28T07:23:54.729Z,101270.66
2022-08-28T07:25:58.169Z,101266.13
2022-08-28T07:28:00.206Z,101273.28
2022-08-28T07:30:02.274Z,101274.91
2022-08-28T07:32:04.592Z,101279.09
2022-08-28T07:34:06.565Z,101271.22
2022-08-28T07:36:09.000Z,101273.69
2022-08-28T07:38:18.043Z,101283.88
2022-08-28T07:40:20.019Z,101273.69
2022-08-28T07:42:23.332Z,101281.03
2022-08-28T07:44:25.311Z,101285.63
2022-08-28T07:46:27.377Z,101280.25
2022-08-28T07:48:29.392Z,101271.72
2022-08-28T07:50:31.306Z,101282.72
2022-08-28T07:52:33.376Z,101285.44
2022-08-28T07:54:35.340Z,101284.03
2022-08-28T07:56:37.238Z,101277.28
2022-08-28T07:58:44.162Z,101286.34
2022-08-28T08:00:46.345Z,101279.69
2022-08-28T08:02:48.278Z,101284.13
2022-08-28T08:04:50.186Z,101280.66
2022-08-28T08:06:57.016Z,101288.00
2022-08-28T08:08:59.985Z,101283.66
2022-08-28T08:11:06.729Z,101279.41
2022-08-28T08:13:13.276Z,101279.94
2022-08-28T08:15:17.704Z,101284.84
2022-08-28T08:17:19.715Z,101275.97
2022-08-28T08:21:45.367Z,101281.59
2022-08-28T08:23:47.717Z,101280.88
2022-08-28T08:25:56.132Z,101281.19
2022-08-28T08:27:58.135Z,101283.88
2022-08-28T08:30:00.029Z,101284.78
2022-08-28T08:32:04.165Z,101282.16
2022-08-28T08:34:06.138Z,101286.84
2022-08-28T08:38:40.483Z,101291.13
2022-08-28T08:40:42.985Z,101289.09
2022-08-28T08:42:45.168Z,101283.84
2022-08-28T08:44:47.220Z,101295.44
2022-08-28T08:46:49.750Z,101288.84
2022-08-28T08:48:53.166Z,101287.63
2022-08-28T08:50:55.757Z,101285.91
2022-08-28T08:53:07.015Z,101290.53
2022-08-28T08:55:14.986Z,101283.00
2022-08-28T08:57:17.227Z,101281.50
2022-08-28T08:59:20.080Z,101277.66
2022-08-28T09:01:23.670Z,101275.38
2022-08-28T09:03:26.626Z,101277.09
2022-08-28T09:05:33.403Z,101275.50
2022-08-28T09:07:37.304Z,101280.31
2022-08-28T09:09:41.288Z,101279.25
2022-08-28T09:11:45.734Z,101288.50
2022-08-28T09:13:54.845Z,101270.94
2022-08-28T09:15:56.781Z,101276.00
2022-08-28T09:18:03.778Z,101278.47
2022-08-28T09:20:06.123Z,101270.22
2022-08-28T09:22:09.709Z,101268.81
2022-08-28T09:24:14.574Z,101270.31
2022-08-28T09:26:22.502Z,101269.47
2022-08-28T09:28:25.327Z,101271.78
2022-08-28T09:30:29.603Z,101278.63
2022-08-28T09:32:32.462Z,101275.22
2022-08-28T09:34:38.601Z,101277.03
2022-08-28T09:36:41.109Z,101273.22
2022-08-28T09:38:44.725Z,101273.69
2022-08-28T09:40:46.583Z,101275.22
2022-08-28T09:42:58.566Z,101267.94
2022-08-28T09:45:01.457Z,101268.66
2022-08-28T09:47:03.594Z,101267.63
2022-08-28T09:49:10.134Z,101260.06
2022-08-28T09:51:12.777Z,101259.56
2022-08-28T09:53:16.388Z,101260.00
2022-08-28T09:55:20.207Z,101263.22
2022-08-28T09:57:22.418Z,101261.31
2022-08-28T09:59:25.337Z,101260.03
2022-08-28T10:01:34.227Z,101262.63
2022-08-28T10:03:37.532Z,101260.97
2022-08-28T10:05:40.450Z,101262.47
2022-08-28T10:07:44.183Z,101258.59
2022-08-28T10:09:47.850Z,101250.34
2022-08-28T10:11:53.036Z,101248.66
2022-08-28T10:13:57.590Z,101244.31
2022-08-28T10:16:12.949Z,101243.25
2022-08-28T10:18:19.308Z,101239.72
2022-08-28T10:20:22.878Z,101254.56
2022-08-28T10:22:29.002Z,101244.94
2022-08-28T10:24:33.981Z,101248.41
2022-08-28T10:26:37.549Z,101240.47
2022-08-28T10:28:43.441Z,101245.91
2022-08-28T10:30:46.945Z,101249.19
2022-08-28T10:32:57.266Z,101248.31
2022-08-28T10:35:01.958Z,101251.03
2022-08-28T10:37:06.811Z,101251.28
2022-08-28T10:39:12.201Z,101246.34
2022-08-28T10:41:16.176Z,101244.28
2022-08-28T10:43:18.701Z,101237.41
2022-08-28T10:45:22.478Z,101238.69
2022-08-28T10:47:24.975Z,101252.91
2022-08-28T10:49:29.014Z,101245.53
2022-08-28T10:51:35.275Z,101245.13
2022-08-28T10:53:38.445Z,101239.81
2022-08-28T10:55:43.646Z,101248.09
2022-08-28T10:57:47.657Z,101242.31
2022-08-28T10:59:50.735Z,101243.88
2022-08-28T11:01:54.199Z,101244.22
2022-08-28T11:03:57.076Z,101249.69
2022-08-28T11:05:59.566Z,101246.25
2022-08-28T11:08:01.902Z,101239.41
2022-08-28T11:10:18.259Z,101242.06
2022-08-28T11:12:34.091Z,101236.63
2022-08-28T11:14:44.625Z,101237.63
2022-08-28T11:16:50.459Z,101239.47
2022-08-28T11:19:04.023Z,101240.63
2022-08-28T11:21:07.120Z,101226.31
2022-08-28T11:23:09.532Z,101239.38
2022-08-28T11:25:13.494Z,101240.06
2022-08-28T11:27:16.998Z,101234.63
2022-08-28T11:29:33.892Z,101232.84
2022-08-28T11:31:38.064Z,101234.03
2022-08-28T11:33:40.639Z,101231.19
2022-08-28T11:35:59.388Z,101229.09
2022-08-28T11:38:01.552Z,101225.41
2022-08-28T11:40:13.621Z,101224.94
2022-08-28T11:42:30.386Z,101227.63
2022-08-28T11:44:39.364Z,101225.78
2022-08-28T11:46:42.129Z,101223.56
2022-08-28T11:48:45.324Z,101222.47
2022-08-28T11:50:56.260Z,101219.88
2022-08-28T11:53:17.309Z,101227.00
2022-08-28T11:55:20.780Z,101228.66
2022-08-28T11:57:24.077Z,101231.22
2022-08-28T11:59:36.025Z,101228.44
2022-08-28T12:01:37.995Z,101238.50
2022-08-28T12:03:49.509Z,101234.06
2022-08-28T12:05:54.286Z,101232.28
2022-08-28T12:07:56.136Z,101227.00
2022-08-28T12:10:01.733Z,101236.66
2022-08-28T12:12:08.850Z,101243.16
2022-08-28T12:14:11.229Z,101237.91
2022-08-28T12:16:15.768Z,101245.63
2022-08-28T12:18:33.482Z,101231.44
2022-08-28T12:20:58.959Z,101234.09
2022-08-28T12:23:01.990Z,101238.09
2022-08-28T12:25:05.092Z,101240.00
2022-08-28T12:27:07.113Z,101236.31
2022-08-28T12:29:17.908Z,101236.09
2022-08-28T12:31:46.532Z,101237.38
2022-08-28T12:33:50.379Z,101232.50
2022-08-28T12:35:53.083Z,101228.03
2022-08-28T12:38:03.920Z,101229.81
2022-08-28T12:40:12.429Z,101227.22
2022-08-28T12:42:14.769Z,101227.16
2022-08-28T12:44:16.907Z,101219.00
2022-08-28T12:46:21.012Z,101225.28
2022-08-28T12:48:23.731Z,101227.56
2022-08-28T12:50:26.997Z,101218.47
2022-08-28T12:52:29.258Z,101210.75
2022-08-28T12:54:33.295Z,101222.59
2022-08-28T12:56:36.006Z,101211.63
2022-08-28T12:58:38.868Z,101211.19
2022-08-28T13:00:48.599Z,101205.06
2022-08-28T13:02:51.511Z,101210.19
2022-08-28T13:04:55.634Z,101201.94
2022-08-28T13:06:57.702Z,101206.38
2022-08-28T13:09:00.947Z,101201.78
2022-08-28T13:11:07.166Z,101201.16
2022-08-28T13:13:09.915Z,101200.09
2022-08-28T13:15:11.765Z,101197.84
2022-08-28T13:17:14.269Z,101192.94
2022-08-28T13:19:25.055Z,101201.16
2022-08-28T13:21:32.739Z,101201.16
2022-08-28T13:23:36.348Z,101186.50
2022-08-28T13:25:38.212Z,101187.63
2022-08-28T13:27:41.332Z,101190.34
2022-08-28T13:29:48.646Z,101194.47
2022-08-28T13:31:55.543Z,101186.13
2022-08-28T13:34:02.146Z,101186.97
2022-08-28T13:36:19.017Z,101189.41
2022-08-28T13:38:21.514Z,101184.38
2022-08-28T13:42:50.039Z,101187.66
2022-08-28T13:44:52.481Z,101184.94
2022-08-28T13:46:54.267Z,101176.91
2022-08-28T13:48:56.076Z,101178.38
2022-08-28T13:50:59.057Z,101168.91
2022-08-28T13:53:00.934Z,101165.66
2022-08-28T13:55:02.890Z,101156.78
2022-08-28T13:57:04.813Z,101164.06
2022-08-28T13:59:07.945Z,101156.53
2022-08-28T14:01:09.734Z,101153.94
2022-08-28T14:03:11.801Z,101143.38
2022-08-28T14:05:13.794Z,101151.50
2022-08-28T14:07:16.373Z,101158.31
2022-08-28T14:09:18.298Z,101154.09
2022-08-28T14:11:20.353Z,101148.88
2022-08-28T14:13:22.123Z,101143.25
2022-08-28T14:15:25.296Z,101146.72
2022-08-28T14:17:27.184Z,101155.72
2022-08-28T14:19:29.328Z,101141.34
2022-08-28T14:21:31.372Z,101147.03
2022-08-28T14:23:33.644Z,101143.41
2022-08-28T14:25:39.105Z,101149.81
2022-08-28T14:27:41.331Z,101136.44
2022-08-28T14:29:43.232Z,101139.19
2022-08-28T14:31:46.675Z,101147.75
2022-08-28T14:33:51.408Z,101141.03
2022-08-28T14:35:53.540Z,101134.03
2022-08-28T14:37:55.466Z,101132.25
2022-08-28T14:39:57.373Z,101127.25
2022-08-28T14:41:59.304Z,101125.53
2022-08-28T14:44:01.257Z,101114.41
2022-08-28T14:46:03.884Z,101114.19
2022-08-28T14:48:08.606Z,101115.53
2022-08-28T14:50:10.564Z,101112.00
2022-08-28T14:52:12.376Z,101120.88
2022-08-28T14:54:14.956Z,101117.13
2022-08-28T14:56:16.724Z,101118.47
2022-08-28T14:58:18.720Z,101118.50
2022-08-28T15:00:20.747Z,101117.50
2022-08-28T15:02:22.556Z,101112.47
2022-08-28T15:04:26.417Z,101114.03
2022-08-28T15:06:28.460Z,101114.19
2022-08-28T15:08:30.425Z,101111.22
2022-08-28T15:10:32.526Z,101112.66
2022-08-28T15:12:34.589Z,101112.97
2022-08-28T15:14:36.540Z,101106.28
2022-08-28T15:16:41.521Z,101107.69
2022-08-28T15:18:43.562Z,101109.53
2022-08-28T15:20:49.011Z,101111.22
2022-08-28T15:22:50.799Z,101111.00
2022-08-28T15:24:52.735Z,101107.38
2022-08-28T15:26:57.555Z,101111.13
2022-08-28T15:29:00.682Z,101104.53
2022-08-28T15:31:02.832Z,101106.72
2022-08-28T15:33:04.926Z,101103.13
2022-08-28T15:35:07.349Z,101109.00
2022-08-28T15:37:10.576Z,101104.16
2022-08-28T15:39:15.380Z,101108.22
2022-08-28T15:41:17.161Z,101100.56
2022-08-28T15:43:19.115Z,101106.00
2022-08-28T15:45:21.048Z,101107.38
2022-08-28T15:47:22.858Z,101106.63
2022-08-28T15:49:25.187Z,101104.63
2022-08-28T15:51:27.071Z,101095.09
2022-08-28T15:53:31.368Z,101101.63
2022-08-28T15:55:33.639Z,101105.44
2022-08-28T15:57:35.591Z,101101.53
2022-08-28T15:59:37.975Z,101104.25
2022-08-28T16:01:53.565Z,101103.16
2022-08-28T16:03:55.380Z,101092.19
2022-08-28T16:05:57.180Z,101099.25
2022-08-28T16:07:58.962Z,101101.19
2022-08-28T16:10:03.830Z,101100.28
2022-08-28T16:12:05.785Z,101096.94
2022-08-28T16:14:08.430Z,101106.91
2022-08-28T16:16:10.395Z,101104.63
2022-08-28T16:18:12.417Z,101110.88
2022-08-28T16:20:14.426Z,101107.38
2022-08-28T16:22:16.834Z,101105.16
2022-08-28T16:24:18.753Z,101103.41
2022-08-28T16:26:22.045Z,101107.03
2022-08-28T16:28:24.065Z,101099.59
2022-08-28T16:30:29.280Z,101098.97
2022-08-28T16:32:31.406Z,101101.75
2022-08-28T16:34:34.137Z,101103.28
2022-08-28T16:36:36.148Z,101107.16
2022-08-28T16:38:38.075Z,101107.88
2022-08-28T16:40:41.441Z,101106.47
2022-08-28T16:42:51.689Z,101106.97
2022-08-28T16:44:55.378Z,101103.22
2022-08-28T16:46:57.257Z,101099.91
2022-08-28T16:48:59.227Z,101095.81
2022-08-28T16:51:01.518Z,101099.69
2022-08-28T16:53:07.058Z,101088.28
2022-08-28T16:55:09.945Z,101097.97
2022-08-28T16:57:12.133Z,101090.13
2022-08-28T16:59:15.397Z,101093.75
2022-08-28T17:01:17.285Z,101089.31
2022-08-28T17:03:22.034Z,101084.47
2022-08-28T17:05:27.648Z,101091.06
2022-08-28T17:07:29.615Z,101092.28
2022-08-28T17:09:32.901Z,101095.91
2022-08-28T17:11:35.249Z,101093.16
2022-08-28T17:13:38.164Z,101093.31
2022-08-28T17:15:41.524Z,101087.75
2022-08-28T17:17:43.580Z,101084.19
2022-08-28T17:19:45.513Z,101083.59
2022-08-28T17:21:47.541Z,101083.72
2022-08-28T17:23:49.544Z,101081.47
2022-08-28T17:25:51.448Z,101075.31
2022-08-28T17:27:53.479Z,101080.03
2022-08-28T17:29:55.367Z,101067.66
2022-08-28T17:31:58.642Z,101076.75
2022-08-28T17:34:00.734Z,101079.69
2022-08-28T17:36:03.707Z,101077.81
2022-08-28T17:38:05.866Z,101079.47
2022-08-28T17:40:11.378Z,101078.50
2022-08-28T17:42:13.242Z,101085.56
2022-08-28T17:44:15.107Z,101079.28
2022-08-28T17:46:16.987Z,101075.28
2022-08-28T17:48:20.304Z,101077.69
2022-08-28T17:50:22.860Z,101082.28
2022-08-28T17:52:24.874Z,101084.81
2022-08-28T17:54:26.925Z,101079.75
2022-08-28T17:56:35.680Z,101078.94
2022-08-28T17:58:40.774Z,101078.47
2022-08-28T18:00:44.240Z,101081.84
2022-08-28T18:02:48.531Z,101083.03
2022-08-28T18:04:51.842Z,101084.31
2022-08-28T18:06:53.829Z,101076.94
2022-08-28T18:08:55.649Z,101090.56
2022-08-28T18:10:57.476Z,101099.28
2022-08-28T18:12:59.358Z,101089.50
2022-08-28T18:15:01.161Z,101106.16
2022-08-28T18:17:03.516Z,101092.00
2022-08-28T18:19:05.843Z,101099.91
2022-08-28T18:21:10.596Z,101108.91
2022-08-28T18:23:12.360Z,101108.84
2022-08-28T18:25:17.429Z,101111.28
2022-08-28T18:27:19.179Z,101114.72
2022-08-28T18:29:21.077Z,101116.56
2022-08-28T18:31:23.013Z,101114.03
2022-08-28T18:33:24.820Z,101113.84
2022-08-28T18:35:31.536Z,101113.41
2022-08-28T18:37:35.479Z,101113.75
2022-08-28T18:39:37.304Z,101111.09
2022-08-28T18:41:44.484Z,101109.22
2022-08-28T18:43:46.818Z,101119.09
2022-08-28T18:45:48.683Z,101113.09
2022-08-28T18:47:50.475Z,101117.56
2022-08-28T18:49:52.418Z,101115.78
2022-08-28T18:51:54.393Z,101122.84
2022-08-28T18:53:57.586Z,101126.84
2022-08-28T18:56:02.698Z,101127.50
2022-08-28T18:58:06.349Z,101124.13
2022-08-28T19:00:09.661Z,101125.63
2022-08-28T19:02:11.640Z,101127.00
2022-08-28T19:04:13.541Z,101131.47
2022-08-28T19:06:15.683Z,101129.50
2022-08-28T19:08:17.496Z,101135.06
2022-08-28T19:10:32.632Z,101139.16
2022-08-28T19:12:35.133Z,101133.16
2022-08-28T19:14:37.024Z,101145.47
2022-08-28T19:16:38.996Z,101148.53
2022-08-28T19:18:40.834Z,101148.03
2022-08-28T19:20:42.628Z,101155.25
2022-08-28T19:22:44.467Z,101154.19
2022-08-28T19:24:47.548Z,101161.94
2022-08-28T19:26:50.693Z,101170.59
2022-08-28T19:28:52.520Z,101173.00
2022-08-28T19:30:54.376Z,101171.34
2022-08-28T19:32:56.209Z,101171.63
2022-08-28T19:34:58.256Z,101177.41
2022-08-28T19:37:00.200Z,101177.56
2022-08-28T19:39:02.087Z,101177.56
2022-08-28T19:41:05.076Z,101181.78
2022-08-28T19:43:08.577Z,101181.63
2022-08-28T19:45:16.000Z,101183.81
2022-08-28T19:47:17.953Z,101180.78
2022-08-28T19:49:19.810Z,101192.63
2022-08-28T19:51:23.150Z,101182.31
2022-08-28T19:53:25.568Z,101188.41
2022-08-28T19:55:27.694Z,101193.38
2022-08-28T19:57:29.571Z,101195.84
2022-08-28T19:59:32.904Z,101203.00
2022-08-28T20:01:35.614Z,101202.03
2022-08-28T20:03:37.468Z,101203.66
2022-08-28T20:05:39.237Z,101208.88
2022-08-28T20:07:41.184Z,101205.38
2022-08-28T20:09:43.124Z,101211.28
2022-08-28T20:11:44.887Z,101214.72
2022-08-28T20:13:46.697Z,101203.22
2022-08-28T20:15:49.902Z,101202.88
2022-08-28T20:17:51.732Z,101204.66
2022-08-28T20:19:53.686Z,101198.72
2022-08-28T20:21:55.458Z,101206.59
2022-08-28T20:23:57.253Z,101199.19
2022-08-28T20:25:59.269Z,101201.50
2022-08-28T20:28:01.925Z,101199.94
2022-08-28T20:30:09.453Z,101208.97
2022-08-28T20:32:14.349Z,101211.50
2022-08-28T20:34:16.696Z,101208.03
2022-08-28T20:36:21.388Z,101209.88
2022-08-28T20:38:23.510Z,101212.56
2022-08-28T20:40:25.453Z,101218.47
2022-08-28T20:42:28.063Z,101209.16
2022-08-28T20:44:33.694Z,101213.38
2022-08-28T20:46:40.014Z,101212.81
2022-08-28T20:48:44.652Z,101209.28
2022-08-28T20:50:46.599Z,101205.94
2022-08-28T20:52:48.537Z,101209.56
2022-08-28T20:54:50.328Z,101217.44
2022-08-28T20:56:52.314Z,101221.09
2022-08-28T20:58:54.275Z,101223.31
2022-08-28T21:00:59.452Z,101228.41
2022-08-28T21:03:01.596Z,101220.75
2022-08-28T21:05:05.327Z,101223.31
2022-08-28T21:07:07.531Z,101223.19
2022-08-28T21:09:09.303Z,101232.88
2022-08-28T21:11:11.173Z,101234.94
2022-08-28T21:13:14.195Z,101238.84
2022-08-28T21:15:15.986Z,101238.84
2022-08-28T21:17:17.814Z,101231.84
2022-08-28T21:19:31.124Z,101235.66
2022-08-28T21:21:34.807Z,101242.44
2022-08-28T21:23:36.794Z,101233.56
2022-08-28T21:25:39.526Z,101238.56
2022-08-28T21:27:41.722Z,101240.88
2022-08-28T21:29:43.669Z,101242.06
2022-08-28T21:31:45.714Z,101247.06
2022-08-28T21:33:47.501Z,101245.13
2022-08-28T21:35:49.344Z,101238.31
2022-08-28T21:37:52.507Z,101239.63
2022-08-28T21:39:56.347Z,101243.53
2022-08-28T21:41:59.155Z,101247.06
2022-08-28T21:44:01.254Z,101249.59
2022-08-28T21:46:03.785Z,101246.88
2022-08-28T21:48:05.677Z,101249.50
2022-08-28T21:50:07.966Z,101247.63
2022-08-28T21:52:10.035Z,101247.03
2022-08-28T21:54:13.275Z,101251.59
2022-08-28T21:56:15.737Z,101248.88
2022-08-28T21:58:17.694Z,101257.84
2022-08-28T22:00:20.449Z,101257.34
2022-08-28T22:02:22.468Z,101246.19
2022-08-28T22:04:24.300Z,101250.66
2022-08-28T22:06:26.155Z,101244.47
2022-08-28T22:08:27.933Z,101246.75
2022-08-28T22:10:31.251Z,101260.00
2022-08-28T22:12:33.104Z,101245.72
2022-08-28T22:14:35.027Z,101250.94
2022-08-28T22:16:36.913Z,101245.28
2022-08-28T22:18:38.758Z,101242.91
2022-08-28T22:20:41.699Z,101246.28
2022-08-28T22:22:43.516Z,101243.41
2022-08-28T22:24:45.330Z,101243.59
2022-08-28T22:26:48.706Z,101247.22
2022-08-28T22:28:59.500Z,101255.75
2022-08-28T22:31:01.361Z,101251.97
2022-08-28T22:33:03.483Z,101251.63
2022-08-28T22:35:05.825Z,101256.31
2022-08-28T22:37:07.839Z,101256.94
2022-08-28T22:39:09.706Z,101249.53
2022-08-28T22:41:11.571Z,101257.47
2022-08-28T22:43:14.761Z,101257.97
2022-08-28T22:45:16.719Z,101259.44
2022-08-28T22:47:18.849Z,101266.47
2022-08-28T22:49:20.954Z,101264.63
2022-08-28T22:51:22.771Z,101262.72
2022-08-28T22:53:24.563Z,101269.50
2022-08-28T22:55:26.498Z,101266.47
2022-08-28T22:57:28.416Z,101273.13
2022-08-28T22:59:31.584Z,101270.34
2022-08-28T23:01:33.645Z,101275.50
2022-08-28T23:03:35.512Z,101275.28
2022-08-28T23:05:37.400Z,101275.50
2022-08-28T23:07:39.228Z,101268.41
2022-08-28T23:09:41.399Z,101272.44
2022-08-28T23:11:43.499Z,101267.00
2022-08-28T23:13:45.346Z,101272.47
2022-08-28T23:15:48.855Z,101267.03
2022-08-28T23:17:50.650Z,101267.00
2022-08-28T23:19:52.540Z,101269.66
2022-08-28T23:21:54.340Z,101251.22
2022-08-28T23:23:56.359Z,101265.31
2022-08-28T23:25:58.173Z,101263.47
2022-08-28T23:28:03.432Z,101255.75
2022-08-28T23:30:07.996Z,101265.34
2022-08-28T23:32:11.258Z,101267.00
2022-08-28T23:34:13.161Z,101260.63
2022-08-28T23:36:15.067Z,101268.06
2022-08-28T23:38:19.369Z,101262.75
2022-08-28T23:40:25.115Z,101268.00
2022-08-28T23:42:29.961Z,101270.00